Time;durP1;ratioP1;P1;durP2;ratioP2;P2;SDS_P1;SDS_P2;PMS_P1;PMS_P2;Temp;Humidity;BMP_temperature;BMP_pressure;BME280_temperature;BME280_humidity;BME280_pressure;Samples;Min_cycle;Max_cycle;Signal;HPM_P1;HPM_P2
2022/02/15 00:00:45;;;;;;;11.63;3.80;;;;;;;8.26;82.69;100614.25;5034655;28;20068;-62
2022/02/15 00:03:12;;;;;;;11.45;3.83;;;;;;;8.27;81.09;100615.03;5020871;28;20041;-62
2022/02/15 00:05:40;;;;;;;15.35;3.78;;;;;;;7.93;81.45;100607.88;5040864;28;20054;-63
2022/02/15 00:08:07;;;;;;;16.08;5.18;;;;;;;8.02;81.28;100615.44;5017734;28;20057;-62
2022/02/15 00:10:34;;;;;;;13.38;3.50;;;;;;;7.86;82.08;100620.34;5023256;28;20520;-62
2022/02/15 00:13:03;;;;;;;10.88;3.10;;;;;;;7.87;82.55;100617.31;5030146;28;20508;-62
2022/02/15 00:15:30;;;;;;;12.23;2.85;;;;;;;7.94;82.28;100620.50;5010886;28;20054;-61
2022/02/15 00:17:58;;;;;;;9.07;2.92;;;;;;;7.95;81.93;100615.81;5015466;28;20655;-61
2022/02/15 00:20:27;;;;;;;11.45;2.42;;;;;;;7.86;81.68;100623.91;5015999;28;20057;-63
2022/02/15 00:22:54;;;;;;;12.00;2.95;;;;;;;8.00;81.17;100624.78;5030502;28;20053;-62
2022/02/15 00:25:22;;;;;;;7.72;2.78;;;;;;;7.92;81.28;100625.47;5018221;28;20382;-62
2022/02/15 00:27:50;;;;;;;11.25;3.17;;;;;;;7.81;81.95;100626.72;5032086;28;20060;-62
2022/02/15 00:30:17;;;;;;;10.80;2.33;;;;;;;7.76;82.56;100624.06;5034288;28;20053;-62
2022/02/15 00:32:45;;;;;;;10.73;2.40;;;;;;;7.74;82.32;100623.53;5031499;28;20038;-61
2022/02/15 00:35:13;;;;;;;8.23;2.58;;;;;;;7.65;83.09;100632.75;5012226;28;20048;-60
2022/02/15 00:37:43;;;;;;;11.27;2.40;;;;;;;7.90;82.23;100643.31;5026039;28;20072;-62
2022/02/15 00:40:11;;;;;;;13.95;3.28;;;;;;;7.89;82.28;100641.69;5016544;28;20654;-62
2022/02/15 00:42:40;;;;;;;10.63;2.85;;;;;;;7.93;82.07;100648.22;5017415;28;20440;-62
2022/02/15 00:45:08;;;;;;;9.15;2.78;;;;;;;7.76;82.40;100648.72;5008514;28;20057;-62
2022/02/15 00:47:36;;;;;;;15.05;3.63;;;;;;;7.82;82.19;100653.03;5021636;28;20054;-62
2022/02/15 00:50:04;;;;;;;11.13;3.17;;;;;;;7.54;83.10;100648.50;5023791;28;20056;-62
2022/02/15 00:52:31;;;;;;;16.38;3.13;;;;;;;7.70;83.44;100657.34;5028478;28;20050;-62
2022/02/15 00:54:59;;;;;;;13.00;3.67;;;;;;;7.68;83.76;100656.81;5022441;28;20049;-61
2022/02/15 00:57:26;;;;;;;8.73;3.00;;;;;;;7.74;83.70;100653.69;5021826;28;20666;-62
2022/02/15 00:59:53;;;;;;;13.00;3.30;;;;;;;8.03;82.92;100659.03;5022503;28;20064;-63
2022/02/15 01:02:22;;;;;;;10.52;2.90;;;;;;;7.92;83.27;100672.09;5020275;28;20053;-61
2022/02/15 01:04:49;;;;;;;15.02;3.35;;;;;;;8.17;82.97;100668.13;4996423;28;20046;-62
2022/02/15 01:07:16;;;;;;;11.35;3.03;;;;;;;7.90;82.55;100684.44;5025083;28;20066;-63
2022/02/15 01:09:44;;;;;;;13.48;3.67;;;;;;;7.69;83.20;100674.88;5006944;28;20054;-62
2022/02/15 01:12:11;;;;;;;8.00;2.80;;;;;;;7.92;83.96;100677.56;5027785;28;20064;-62
2022/02/15 01:14:38;;;;;;;12.30;3.20;;;;;;;8.19;83.45;100676.06;5017415;28;20049;-61
2022/02/15 01:17:06;;;;;;;10.25;2.88;;;;;;;7.95;82.18;100676.13;5009171;28;20049;-62
2022/02/15 01:19:34;;;;;;;13.73;2.40;;;;;;;7.84;83.03;100683.72;5019634;28;20065;-62
2022/02/15 01:22:01;;;;;;;11.32;2.72;;;;;;;7.93;82.59;100683.88;5007473;28;20046;-61
2022/02/15 01:24:29;;;;;;;10.35;3.13;;;;;;;7.69;83.68;100685.84;5033596;28;20171;-62
2022/02/15 01:26:56;;;;;;;9.05;2.67;;;;;;;7.70;83.88;100690.22;5030935;28;20056;-62
2022/02/15 01:29:24;;;;;;;10.63;2.50;;;;;;;7.71;83.79;100692.69;4994475;28;20053;-62
2022/02/15 01:31:52;;;;;;;8.85;2.47;;;;;;;8.02;82.71;100704.84;4986260;28;20053;-61
2022/02/15 01:34:21;;;;;;;8.20;2.70;;;;;;;7.49;84.16;100706.13;5010148;28;20048;-62
2022/02/15 01:36:48;;;;;;;11.98;2.78;;;;;;;7.58;84.41;100707.09;5007587;28;20061;-62
2022/02/15 01:39:22;;;;;;;11.13;2.40;;;;;;;7.58;83.99;100696.13;5011619;28;20460;-62
2022/02/15 01:41:50;;;;;;;10.48;2.60;;;;;;;7.91;83.37;100702.53;5023316;28;20054;-63
2022/02/15 01:44:17;;;;;;;12.23;2.70;;;;;;;7.72;82.77;100705.25;5021040;28;20048;-63
2022/02/15 01:46:48;;;;;;;9.55;2.92;;;;;;;7.56;83.85;100716.72;5016884;28;20053;-62
2022/02/15 01:49:15;;;;;;;9.80;2.53;;;;;;;7.78;83.61;100715.06;5005305;28;20044;-62
2022/02/15 01:51:43;;;;;;;12.48;3.13;;;;;;;7.86;83.33;100710.84;5001778;28;20054;-62
2022/02/15 01:54:10;;;;;;;14.35;3.13;;;;;;;7.66;83.39;100709.19;5016667;28;20048;-63
2022/02/15 01:56:39;;;;;;;11.45;2.38;;;;;;;7.98;83.54;100716.72;5014397;28;20060;-62
2022/02/15 01:59:06;;;;;;;12.68;2.85;;;;;;;7.55;82.90;100726.88;5015449;28;20640;-62
2022/02/15 02:01:34;;;;;;;12.07;3.60;;;;;;;7.68;84.80;100731.66;5013833;28;20057;-62
2022/02/15 02:05:47;;;;;;;12.90;2.75;;;;;;;7.59;82.89;100729.84;5021153;28;20530;-62
2022/02/15 02:06:57;;;;;;;16.15;2.60;;;;;;;7.85;83.76;100728.41;5031142;28;20069;-62
2022/02/15 02:09:28;;;;;;;10.98;2.40;;;;;;;7.53;83.10;100733.78;5030325;28;20060;-63
2022/02/15 02:11:57;;;;;;;15.43;2.22;;;;;;;7.69;84.18;100735.19;5017451;28;20057;-62
2022/02/15 02:14:41;;;;;;;10.50;2.42;;;;;;;7.63;83.03;100747.34;5022321;28;20045;-62
2022/02/15 02:17:09;;;;;;;12.30;2.67;;;;;;;7.54;82.83;100746.34;5029609;28;20513;-62
2022/02/15 02:19:36;;;;;;;9.48;2.60;;;;;;;7.65;83.36;100745.91;5015989;28;20053;-63
2022/02/15 02:22:04;;;;;;;12.15;2.78;;;;;;;7.56;82.66;100752.38;5032598;28;20049;-61
2022/02/15 02:24:31;;;;;;;11.68;2.35;;;;;;;7.56;83.01;100753.19;5026746;28;20480;-62
2022/02/15 02:27:00;;;;;;;13.68;2.20;;;;;;;7.45;83.04;100759.06;5023527;28;20046;-63
2022/02/15 02:29:28;;;;;;;10.50;2.15;;;;;;;7.65;83.53;100753.34;5022901;28;20523;-63
2022/02/15 02:31:55;;;;;;;9.20;2.53;;;;;;;7.76;83.07;100760.31;5026574;28;20042;-63
2022/02/15 02:34:26;;;;;;;12.02;2.80;;;;;;;7.67;83.06;100759.38;5030529;28;20054;-63
2022/02/15 02:36:53;;;;;;;15.15;2.85;;;;;;;7.65;83.09;100753.34;5029361;28;20126;-65
2022/02/15 02:39:24;;;;;;;13.48;2.53;;;;;;;7.68;83.06;100764.56;5012056;28;20516;-62
2022/02/15 02:41:52;;;;;;;15.75;3.08;;;;;;;7.61;82.74;100772.31;5022063;28;20511;-62
2022/02/15 02:44:20;;;;;;;16.95;2.60;;;;;;;7.72;82.45;100764.78;5020933;28;20045;-61
2022/02/15 02:46:49;;;;;;;14.25;2.30;;;;;;;7.91;82.26;100765.63;5028639;28;20060;-63
2022/02/15 02:49:18;;;;;;;11.27;2.33;;;;;;;8.09;80.85;100764.00;5034554;28;20056;-62
2022/02/15 02:51:46;;;;;;;18.35;3.38;;;;;;;7.95;81.79;100766.66;5011163;28;20300;-61
2022/02/15 02:54:13;;;;;;;10.95;2.28;;;;;;;7.78;81.69;100774.56;5026452;28;20046;-62
2022/02/15 02:56:51;;;;;;;12.25;2.72;;;;;;;7.81;81.24;100769.31;5035033;28;20054;-62
2022/02/15 02:59:20;;;;;;;21.40;2.80;;;;;;;7.79;81.47;100776.19;5023222;28;20064;-63
2022/02/15 03:01:47;;;;;;;10.75;2.00;;;;;;;7.83;80.98;100779.97;5028564;28;20065;-62
2022/02/15 03:04:15;;;;;;;10.98;2.20;;;;;;;7.81;81.64;100782.22;5019749;28;20045;-61
2022/02/15 03:06:42;;;;;;;13.73;3.05;;;;;;;7.61;81.32;100799.72;5015758;28;20651;-63
2022/02/15 03:09:10;;;;;;;11.00;2.08;;;;;;;7.56;83.06;100790.72;5014652;28;20405;-62
2022/02/15 03:11:37;;;;;;;12.55;2.38;;;;;;;7.46;82.64;100796.34;5029748;28;20057;-62
2022/02/15 03:14:05;;;;;;;13.10;2.25;;;;;;;7.62;83.56;100795.03;5042938;28;20098;-62
2022/02/15 03:16:43;;;;;;;16.33;2.92;;;;;;;7.68;81.94;100815.81;5030019;28;20046;-64
2022/02/15 03:19:10;;;;;;;14.48;2.83;;;;;;;7.56;82.58;100805.25;5025181;28;20058;-62
2022/02/15 03:21:37;;;;;;;12.57;2.30;;;;;;;7.52;81.60;100819.81;5018709;28;20076;-62
2022/02/15 03:24:06;;;;;;;15.15;2.70;;;;;;;7.59;81.74;100810.16;5025561;28;20046;-63
2022/02/15 03:26:33;;;;;;;14.05;2.47;;;;;;;7.72;82.05;100817.66;5009920;28;20054;-62
2022/02/15 03:29:03;;;;;;;11.85;2.20;;;;;;;7.55;81.70;100833.75;5034299;28;20065;-62
2022/02/15 03:31:31;;;;;;;11.75;2.30;;;;;;;7.62;81.32;100830.66;5031191;28;20050;-62
2022/02/15 03:33:59;;;;;;;9.77;2.13;;;;;;;7.87;81.41;100836.69;5032010;28;20501;-64
2022/02/15 03:36:29;;;;;;;12.10;1.95;;;;;;;7.94;79.74;100841.81;5021638;28;20499;-63
2022/02/15 03:39:05;;;;;;;9.20;2.47;;;;;;;7.53;80.16;100857.09;5020077;28;20061;-62
2022/02/15 03:44:25;;;;;;;11.32;1.98;;;;;;;7.53;81.22;100848.88;5028309;28;20418;-63
2022/02/15 03:46:58;;;;;;;10.73;1.58;;;;;;;7.47;80.94;100861.00;5023345;28;20046;-64
2022/02/15 03:49:32;;;;;;;10.95;1.88;;;;;;;7.46;80.75;100871.13;5029175;28;20071;-63
2022/02/15 03:52:00;;;;;;;13.15;2.28;;;;;;;7.35;81.20;100861.38;5034936;28;20057;-62
2022/02/15 03:54:27;;;;;;;15.00;1.95;;;;;;;7.33;81.24;100863.59;5030675;28;20053;-63
2022/02/15 03:56:55;;;;;;;7.57;1.63;;;;;;;7.32;81.28;100877.59;5030383;28;20065;-63
2022/02/15 03:59:24;;;;;;;11.93;2.33;;;;;;;7.29;81.10;100870.75;5029094;28;20053;-62
2022/02/15 04:01:51;;;;;;;15.05;2.50;;;;;;;7.12;81.81;100891.44;5027609;28;20045;-62
2022/02/15 04:04:19;;;;;;;15.55;2.97;;;;;;;7.20;82.39;100899.06;5036872;28;20050;-62
2022/02/15 04:06:47;;;;;;;11.52;2.13;;;;;;;7.42;82.00;100902.16;5034749;28;20504;-62
2022/02/15 04:09:15;;;;;;;15.35;2.30;;;;;;;7.21;81.29;100901.50;5026469;28;20061;-62
2022/02/15 04:11:43;;;;;;;12.00;2.20;;;;;;;7.00;81.81;100901.94;5020877;28;20057;-61
2022/02/15 04:14:13;;;;;;;13.65;2.67;;;;;;;7.09;82.12;100908.44;5032154;28;20071;-63
2022/02/15 04:16:43;;;;;;;14.35;2.33;;;;;;;7.12;82.61;100921.56;5029056;28;20063;-62
2022/02/15 04:19:10;;;;;;;12.35;2.38;;;;;;;6.98;82.07;100926.88;5034330;28;20089;-63
2022/02/15 04:21:38;;;;;;;12.00;2.88;;;;;;;7.10;82.35;100931.97;5017323;28;20038;-61
2022/02/15 04:24:06;;;;;;;12.00;2.55;;;;;;;7.01;81.12;100942.72;5028565;28;20049;-61
2022/02/15 04:26:33;;;;;;;13.15;1.98;;;;;;;7.00;81.80;100938.38;5022130;28;20065;-62
2022/02/15 04:29:01;;;;;;;15.77;2.78;;;;;;;7.17;80.20;100948.91;5027228;28;20050;-62
2022/02/15 04:31:38;;;;;;;18.58;2.83;;;;;;;7.25;82.24;100946.41;5018172;28;20061;-62
2022/02/15 04:34:05;;;;;;;12.90;2.42;;;;;;;7.38;80.88;100947.66;5032653;28;20064;-63
2022/02/15 04:36:34;;;;;;;16.37;2.53;;;;;;;7.36;80.56;100963.56;5024483;28;20050;-62
2022/02/15 04:39:02;;;;;;;10.05;2.60;;;;;;;7.48;79.92;100956.63;5026210;28;20295;-62
2022/02/15 04:41:32;;;;;;;8.95;2.25;;;;;;;7.39;79.69;100966.53;5027971;28;20042;-62
2022/02/15 04:44:07;;;;;;;11.30;1.98;;;;;;;7.21;80.32;100971.91;5032136;28;20055;-63
2022/02/15 04:46:35;;;;;;;11.57;2.08;;;;;;;7.16;81.14;100970.03;5024350;28;20062;-62
2022/02/15 04:49:02;;;;;;;11.20;2.15;;;;;;;7.03;81.35;100972.56;5014092;28;20061;-62
2022/02/15 04:51:32;;;;;;;13.00;2.30;;;;;;;7.27;81.13;100973.53;5023250;28;20041;-62
2022/02/15 04:53:59;;;;;;;14.43;2.15;;;;;;;7.02;80.99;100979.16;5023533;28;20050;-62
2022/02/15 04:56:26;;;;;;;12.10;1.65;;;;;;;6.89;81.50;100982.53;5014203;28;20052;-62
2022/02/15 04:58:55;;;;;;;9.23;2.03;;;;;;;6.84;81.74;100984.19;5028805;28;20054;-63
2022/02/15 05:01:22;;;;;;;9.63;1.52;;;;;;;7.05;81.33;100989.53;5013645;28;20053;-62
2022/02/15 05:04:04;;;;;;;16.63;2.83;;;;;;;7.09;81.27;100993.34;5027462;28;20041;-63
2022/02/15 05:06:34;;;;;;;13.35;2.15;;;;;;;6.99;80.63;100983.28;5019984;28;20073;-62
2022/02/15 05:09:05;;;;;;;11.73;2.03;;;;;;;7.18;80.76;100999.88;5021688;28;20428;-62
2022/02/15 05:11:34;;;;;;;16.60;2.13;;;;;;;7.41;80.04;100999.97;5031032;28;20045;-62
2022/02/15 05:14:02;;;;;;;13.90;2.30;;;;;;;7.32;79.72;100998.94;5027332;28;20061;-62
2022/02/15 05:16:37;;;;;;;11.35;2.30;;;;;;;7.09;80.29;100996.94;5022888;28;20056;-62
2022/02/15 05:19:16;;;;;;;9.43;1.60;;;;;;;7.07;80.52;100996.38;5027242;28;20045;-62
2022/02/15 05:21:50;;;;;;;8.40;2.10;;;;;;;7.29;80.25;100996.78;5014092;28;20046;-62
2022/02/15 05:24:18;;;;;;;10.18;2.03;;;;;;;7.20;79.77;101001.22;5024435;28;20038;-62
2022/02/15 05:26:54;;;;;;;16.63;2.63;;;;;;;7.18;79.99;101002.63;5031107;28;20401;-62
2022/02/15 05:29:40;;;;;;;13.63;2.03;;;;;;;7.29;80.43;100994.03;5029023;28;20046;-62
2022/02/15 05:32:42;;;;;;;14.43;2.22;;;;;;;7.16;79.60;100997.44;5025554;28;20493;-62
2022/02/15 05:35:11;;;;;;;15.07;2.22;;;;;;;7.15;80.67;101001.25;5022785;28;20486;-63
2022/02/15 05:37:43;;;;;;;12.73;2.00;;;;;;;7.00;80.41;100998.63;5029974;28;20516;-62
2022/02/15 05:40:13;;;;;;;12.50;1.87;;;;;;;6.83;80.62;101000.91;5028647;28;20050;-63
2022/02/15 05:42:55;;;;;;;14.40;2.20;;;;;;;6.89;81.06;101009.91;5040652;28;20441;-62
2022/02/15 05:45:23;;;;;;;15.77;2.40;;;;;;;6.89;80.90;101004.44;5017068;28;20041;-63
2022/02/15 05:48:25;;;;;;;16.00;2.95;;;;;;;6.92;81.78;101006.59;5016541;28;20057;-62
2022/02/15 05:50:58;;;;;;;18.52;2.00;;;;;;;6.73;80.57;101009.97;5032103;28;20049;-63
2022/02/15 05:53:38;;;;;;;15.95;2.20;;;;;;;6.75;81.32;101009.69;5024548;28;20065;-61
2022/02/15 05:56:06;;;;;;;18.40;2.20;;;;;;;6.98;80.53;101011.78;5029642;28;20049;-62
2022/02/15 05:58:43;;;;;;;14.23;2.33;;;;;;;6.89;80.38;101015.41;5025980;28;20438;-63
2022/02/15 06:01:29;;;;;;;15.50;2.45;;;;;;;7.22;79.76;101011.91;5026215;28;20064;-64
2022/02/15 06:04:12;;;;;;;12.18;1.95;;;;;;;7.32;79.14;101003.63;5039857;28;20049;-64
2022/02/15 06:06:47;;;;;;;16.50;2.72;;;;;;;6.99;79.16;101007.13;5030134;28;20409;-62
2022/02/15 06:09:16;;;;;;;18.10;2.30;;;;;;;6.92;79.55;101004.69;5019397;28;20058;-64
2022/02/15 06:11:46;;;;;;;11.55;2.05;;;;;;;6.87;79.42;101012.13;5036039;28;20055;-62
2022/02/15 06:14:13;;;;;;;12.10;2.28;;;;;;;6.87;79.26;101017.59;5030205;28;20050;-63
2022/02/15 06:16:41;;;;;;;13.15;2.22;;;;;;;7.08;79.44;101030.88;5017822;28;20056;-62
2022/02/15 06:19:16;;;;;;;18.15;2.20;;;;;;;6.97;78.50;101025.75;5032323;28;20045;-63
2022/02/15 06:21:44;;;;;;;15.73;2.40;;;;;;;6.93;78.69;101016.44;5035618;28;20053;-63
2022/02/15 06:24:17;;;;;;;21.35;2.70;;;;;;;6.71;78.96;101036.00;5029259;28;20057;-62
2022/02/15 06:27:18;;;;;;;14.55;2.38;;;;;;;6.76;79.80;101034.03;5023161;28;20052;-63
2022/02/15 06:30:07;;;;;;;15.05;2.50;;;;;;;6.81;78.54;101034.03;5030669;28;20061;-62
2022/02/15 06:32:43;;;;;;;19.77;2.30;;;;;;;6.87;78.26;101047.72;5049283;28;20045;-62
2022/02/15 06:35:14;;;;;;;17.00;2.70;;;;;;;6.82;78.40;101043.88;5035067;28;20037;-63
2022/02/15 06:37:46;;;;;;;14.35;2.22;;;;;;;6.63;78.94;101056.56;5035836;28;20049;-63
2022/02/15 06:40:14;;;;;;;13.10;2.05;;;;;;;6.76;79.75;101052.41;5041447;28;20052;-63
2022/02/15 06:42:48;;;;;;;15.90;2.42;;;;;;;6.66;79.47;101061.47;5025052;28;20064;-63
2022/02/15 06:45:17;;;;;;;19.23;2.63;;;;;;;6.59;79.40;101058.19;5025560;28;20045;-62
2022/02/15 06:47:44;;;;;;;15.73;1.95;;;;;;;6.66;79.05;101058.72;5034024;28;20386;-63
2022/02/15 06:50:14;;;;;;;10.65;2.00;;;;;;;6.95;78.57;101074.50;5020916;28;20037;-61
2022/02/15 06:52:51;;;;;;;16.10;2.08;;;;;;;6.91;77.77;101081.63;5018179;28;20053;-63
2022/02/15 06:55:57;;;;;;;12.85;2.83;;;;;;;6.62;78.61;101081.47;5029361;28;20325;-62
2022/02/15 06:58:29;;;;;;;13.45;2.83;;;;;;;6.46;78.82;101083.44;5019349;28;20049;-63
2022/02/15 07:00:56;;;;;;;17.45;2.28;;;;;;;6.55;79.04;101078.22;5019284;28;20053;-63
2022/02/15 07:03:24;;;;;;;14.02;2.50;;;;;;;6.42;79.31;101076.88;5025654;28;20492;-64
2022/02/15 07:05:54;;;;;;;;;;;;;;;6.47;78.64;101082.31;5019851;28;20397;-62
2022/02/15 07:08:22;;;;;;;14.35;2.30;;;;;;;6.63;79.00;101091.31;5001128;28;19935;-68
2022/02/15 07:10:54;;;;;;;;;;;;;;;6.70;78.11;101089.09;5014522;28;20060;-62
2022/02/15 07:13:25;;;;;;;12.88;2.35;;;;;;;6.56;79.03;101093.50;5023957;28;20435;-62
2022/02/15 07:15:56;;;;;;;14.68;2.20;;;;;;;6.50;79.06;101097.38;5017136;28;20060;-63
2022/02/15 07:18:26;;;;;;;16.52;2.50;;;;;;;6.62;78.94;101092.41;5011621;28;20053;-64
2022/02/15 07:21:22;;;;;;;10.90;2.42;;;;;;;6.47;78.35;101097.91;4946801;28;20063;-64
2022/02/15 07:24:08;;;;;;;16.65;3.08;;;;;;;6.44;79.00;101099.31;5037130;28;20050;-63
2022/02/15 07:27:14;;;;;;;18.05;3.03;;;;;;;6.52;79.06;101111.59;4974952;28;20053;-62
2022/02/15 07:29:47;;;;;;;12.38;2.28;;;;;;;6.50;78.74;101114.59;4961210;28;20537;-62
2022/02/15 07:32:25;;;;;;;16.10;3.25;;;;;;;6.51;78.83;101119.00;4999480;28;20062;-63
2022/02/15 07:34:54;;;;;;;11.77;3.22;;;;;;;6.69;78.73;101103.91;5022619;28;20045;-63
2022/02/15 07:37:24;;;;;;;11.35;2.70;;;;;;;6.89;77.31;101116.72;5034475;28;20053;-63
2022/02/15 07:39:52;;;;;;;14.52;2.53;;;;;;;6.70;77.95;101111.81;5032154;28;20080;-62
2022/02/15 07:42:19;;;;;;;13.43;2.58;;;;;;;7.08;77.63;101115.78;5020623;28;20050;-63
2022/02/15 07:44:47;;;;;;;20.73;2.38;;;;;;;6.88;76.84;101117.78;5022760;28;20045;-64
2022/02/15 07:47:15;;;;;;;17.52;2.85;;;;;;;6.61;77.57;101118.13;5031555;28;20050;-62
2022/02/15 07:49:43;;;;;;;15.07;2.42;;;;;;;6.85;77.04;101119.97;5014423;28;20053;-62
2022/02/15 07:52:10;;;;;;;12.93;2.28;;;;;;;6.93;76.83;101121.34;5024879;28;20432;-63
2022/02/15 07:54:37;;;;;;;20.80;2.72;;;;;;;6.90;76.52;101121.91;5033904;28;20208;-64
2022/02/15 07:57:06;;;;;;;12.10;2.08;;;;;;;6.85;76.14;101121.91;5035853;28;20045;-62
2022/02/15 07:59:34;;;;;;;18.92;3.10;;;;;;;6.83;76.70;101127.66;5034848;28;20053;-63
2022/02/15 08:02:01;;;;;;;19.30;3.80;;;;;;;6.85;76.46;101128.19;5026986;28;20065;-63
2022/02/15 08:04:29;;;;;;;20.92;3.33;;;;;;;6.72;76.81;101137.00;5032997;28;20050;-61
2022/02/15 08:07:00;;;;;;;27.27;3.72;;;;;;;6.82;76.47;101144.34;5016405;28;20052;-64
2022/02/15 08:09:27;;;;;;;12.47;2.23;;;;;;;6.98;76.07;101148.69;5029168;28;20060;-64
2022/02/15 08:11:57;;;;;;;29.85;3.83;;;;;;;6.97;76.32;101155.28;5042837;28;20411;-63
2022/02/15 08:14:25;;;;;;;13.38;3.90;;;;;;;6.82;76.88;101156.13;5036575;28;20425;-62
2022/02/15 08:16:53;;;;;;;27.38;3.75;;;;;;;6.92;76.73;101152.56;5026016;28;20049;-63
2022/02/15 08:19:26;;;;;;;24.25;5.38;;;;;;;7.00;76.85;101159.38;5021989;28;20064;-63
2022/02/15 08:21:54;;;;;;;39.88;16.50;;;;;;;7.07;76.12;101157.97;5017782;28;20061;-63
2022/02/15 08:24:22;;;;;;;26.25;7.72;;;;;;;7.17;75.96;101163.41;5020747;28;20050;-64
2022/02/15 08:26:49;;;;;;;22.40;3.63;;;;;;;7.07;75.33;101162.63;5028773;28;20378;-62
2022/02/15 08:29:16;;;;;;;12.18;2.10;;;;;;;7.07;76.28;101165.38;5031622;28;20041;-63
2022/02/15 08:31:45;;;;;;;23.10;7.00;;;;;;;7.08;75.88;101159.59;5030173;28;20061;-62
2022/02/15 08:34:12;;;;;;;11.00;2.67;;;;;;;7.12;75.53;101171.66;5034635;28;20052;-62
2022/02/15 08:36:42;;;;;;;16.05;2.15;;;;;;;6.79;76.30;101177.78;5032648;28;20042;-62
2022/02/15 08:39:10;;;;;;;15.23;2.75;;;;;;;6.85;76.49;101174.75;5039021;28;20052;-62
2022/02/15 08:41:38;;;;;;;23.40;2.92;;;;;;;6.96;77.37;101174.72;5039810;28;20053;-62
2022/02/15 08:44:05;;;;;;;15.35;2.25;;;;;;;7.00;77.68;101171.16;5031116;28;20041;-63
2022/02/15 08:46:34;;;;;;;20.60;3.60;;;;;;;6.97;77.01;101181.84;5026653;28;20050;-62
2022/02/15 08:49:02;;;;;;;18.10;3.10;;;;;;;7.05;78.08;101179.34;5016939;28;20042;-62
2022/02/15 08:51:29;;;;;;;19.67;2.92;;;;;;;6.97;77.48;101185.41;5030224;28;20049;-62
2022/02/15 08:53:57;;;;;;;16.92;2.70;;;;;;;6.96;77.45;101170.06;5026783;28;20046;-62
2022/02/15 08:56:24;;;;;;;16.15;2.33;;;;;;;7.49;78.88;101168.47;5027154;28;20050;-62
2022/02/15 08:58:51;;;;;;;15.20;2.20;;;;;;;7.17;75.37;101173.53;5026499;28;20056;-62
2022/02/15 09:01:19;;;;;;;21.35;4.07;;;;;;;7.32;75.54;101174.28;5033539;28;20041;-67
2022/02/15 09:03:47;;;;;;;21.63;3.22;;;;;;;7.32;75.17;101168.81;5019663;28;20050;-61
2022/02/15 09:06:14;;;;;;;17.13;2.60;;;;;;;7.19;75.09;101161.22;5024037;28;20064;-62
2022/02/15 09:08:42;;;;;;;18.77;2.95;;;;;;;7.31;74.74;101150.75;5024422;28;20041;-62
2022/02/15 09:11:10;;;;;;;17.80;2.53;;;;;;;7.50;74.77;101139.97;5024423;28;20050;-62
2022/02/15 09:13:37;;;;;;;12.35;2.45;;;;;;;7.79;74.26;101141.69;5001062;28;20053;-62
2022/02/15 09:16:05;;;;;;;15.82;2.95;;;;;;;7.91;74.17;101133.91;5024411;28;20046;-63
2022/02/15 09:18:33;;;;;;;22.02;3.03;;;;;;;8.09;72.57;101143.38;5028014;28;20046;-63
2022/02/15 09:21:00;;;;;;;21.48;2.88;;;;;;;7.98;71.84;101139.91;5031808;28;20066;-61
2022/02/15 09:23:28;;;;;;;31.77;3.60;;;;;;;8.05;71.62;101145.09;5013135;28;20041;-61
2022/02/15 09:25:56;;;;;;;12.15;2.70;;;;;;;8.13;71.52;101154.59;5025114;28;20046;-62
2022/02/15 09:28:23;;;;;;;18.52;2.97;;;;;;;8.27;71.63;101152.88;5028478;28;20046;-62
2022/02/15 09:30:54;;;;;;;22.42;2.47;;;;;;;8.48;71.41;101160.66;5032146;28;20050;-62
2022/02/15 09:33:22;;;;;;;16.05;3.10;;;;;;;8.53;71.14;101157.84;5023980;28;20080;-62
2022/02/15 09:36:10;;;;;;;22.30;3.75;;;;;;;8.45;71.22;101161.25;5033760;28;20052;-61
2022/02/15 09:38:38;;;;;;;14.73;3.08;;;;;;;8.41;71.10;101160.19;5017446;28;20038;-61
2022/02/15 09:41:07;;;;;;;11.82;2.25;;;;;;;8.28;70.72;101160.03;5033936;28;20405;-61
2022/02/15 09:43:36;;;;;;;13.88;3.15;;;;;;;8.71;70.40;101154.41;5044575;28;20059;-61
2022/02/15 09:46:08;;;;;;;16.58;3.45;;;;;;;8.65;70.19;101165.69;5042357;28;20053;-61
2022/02/15 09:48:37;;;;;;;22.23;3.15;;;;;;;8.87;70.44;101164.09;5038208;28;20050;-63
2022/02/15 09:51:05;;;;;;;16.35;2.92;;;;;;;8.94;69.41;101159.06;5020001;28;20425;-61
2022/02/15 09:53:33;;;;;;;16.00;2.40;;;;;;;8.93;69.18;101154.69;5037341;28;20044;-61
2022/02/15 09:56:04;;;;;;;15.70;2.42;;;;;;;9.20;68.86;101156.88;5036753;28;20049;-61
2022/02/15 09:58:33;;;;;;;;;;;;;;;9.19;68.72;101157.97;5032756;28;20056;-62
2022/02/15 10:01:01;;;;;;;21.63;3.57;;;;;;;9.39;68.17;101162.38;5037507;28;19936;-62
2022/02/15 10:03:29;;;;;;;19.38;3.17;;;;;;;9.52;66.99;101162.47;5032016;28;20072;-61
2022/02/15 10:05:57;;;;;;;12.57;2.47;;;;;;;9.24;67.19;101168.09;5031004;28;20049;-62
2022/02/15 10:08:26;;;;;;;15.35;3.50;;;;;;;9.17;68.48;101170.38;5035727;28;20056;-62
2022/02/15 10:10:54;;;;;;;16.63;3.22;;;;;;;9.34;67.69;101163.28;5016496;28;20061;-60
2022/02/15 10:13:21;;;;;;;20.45;2.45;;;;;;;9.49;67.27;101168.56;5019593;28;20048;-62
2022/02/15 10:15:51;;;;;;;17.73;3.38;;;;;;;9.54;67.62;101175.94;5032568;28;20400;-62
2022/02/15 10:18:22;;;;;;;19.23;4.55;;;;;;;9.70;68.42;101158.94;5027860;28;20038;-61
2022/02/15 10:20:53;;;;;;;14.68;3.00;;;;;;;9.91;67.14;101165.78;5035570;28;20056;-62
2022/02/15 10:23:23;;;;;;;18.42;2.58;;;;;;;10.30;65.66;101165.47;5002822;28;20045;-62
2022/02/15 10:25:52;;;;;;;21.08;3.20;;;;;;;10.08;65.54;101170.75;5040412;28;20075;-63
2022/02/15 10:28:22;;;;;;;15.43;3.10;;;;;;;10.28;65.52;101173.22;5040836;28;20033;-62
2022/02/15 10:30:50;;;;;;;13.33;2.50;;;;;;;10.31;66.19;101183.63;5017822;28;20050;-61
2022/02/15 10:33:22;;;;;;;15.95;3.08;;;;;;;10.45;65.54;101187.25;5030391;28;20056;-63
2022/02/15 10:35:57;;;;;;;18.25;3.38;;;;;;;10.41;65.55;101177.94;5013688;28;20511;-63
2022/02/15 10:38:39;;;;;;;25.45;9.80;;;;;;;10.32;64.89;101178.94;5027014;28;20037;-66
2022/02/15 10:41:13;;;;;;;22.50;5.20;;;;;;;10.15;65.08;101174.78;5036994;28;20056;-63
2022/02/15 10:43:48;;;;;;;22.17;5.20;;;;;;;10.16;65.22;101175.63;5002993;28;20053;-62
2022/02/15 10:46:18;;;;;;;17.50;4.00;;;;;;;10.30;65.43;101170.97;5025166;28;20496;-64
2022/02/15 10:48:47;;;;;;;17.70;5.75;;;;;;;10.32;64.97;101154.16;5042386;28;20045;-68
2022/02/15 10:51:15;;;;;;;32.20;10.20;;;;;;;10.17;66.14;101142.28;5025502;28;20059;-70
2022/02/15 10:53:59;;;;;;;57.70;22.45;;;;;;;10.01;65.66;101149.09;5036490;28;20061;-62
2022/02/15 10:56:47;;;;;;;31.38;13.15;;;;;;;10.18;66.30;101140.34;5008551;28;20064;-65
2022/02/15 10:59:15;;;;;;;22.85;5.57;;;;;;;10.35;65.88;101139.78;5030114;28;20049;-65
2022/02/15 11:01:43;;;;;;;19.58;4.78;;;;;;;10.53;64.41;101131.44;5029650;28;20053;-62
2022/02/15 11:04:11;;;;;;;16.80;4.30;;;;;;;10.51;64.60;101141.97;5012048;28;20052;-65
2022/02/15 11:06:39;;;;;;;13.20;3.00;;;;;;;10.77;64.04;101129.38;5000342;28;20057;-64
2022/02/15 11:09:09;;;;;;;15.27;2.90;;;;;;;10.92;65.79;101131.00;5034552;28;20049;-64
2022/02/15 11:12:32;;;;;;;14.20;2.83;;;;;;;11.00;63.17;101114.56;5022017;28;20071;-64
2022/02/15 11:15:07;;;;;;;14.20;2.38;;;;;;;11.43;62.33;101112.28;5008043;28;20528;-70
2022/02/15 11:17:35;;;;;;;13.60;3.15;;;;;;;11.11;62.67;101110.47;5031765;28;20053;-67
2022/02/15 11:20:06;;;;;;;15.18;3.67;;;;;;;10.82;63.61;101109.97;5025587;28;20053;-64
2022/02/15 11:22:46;;;;;;;16.75;3.15;;;;;;;10.92;63.90;101107.03;5029829;28;20050;-65
2022/02/15 11:25:13;;;;;;;11.55;2.83;;;;;;;10.84;63.95;101104.16;5024348;28;20052;-65
2022/02/15 11:27:49;;;;;;;16.15;3.10;;;;;;;10.93;63.79;101110.59;5029858;28;20405;-65
2022/02/15 11:30:17;;;;;;;19.70;3.30;;;;;;;11.11;62.65;101118.75;5029183;28;20060;-64
2022/02/15 11:32:44;;;;;;;16.15;3.20;;;;;;;11.14;63.82;101120.88;5033918;28;20505;-62
2022/02/15 11:35:16;;;;;;;17.33;3.05;;;;;;;11.23;64.54;101113.53;5032194;28;20049;-65
2022/02/15 11:37:44;;;;;;;15.35;3.13;;;;;;;11.53;62.65;101122.25;5035908;28;20053;-65
2022/02/15 11:40:13;;;;;;;17.88;3.10;;;;;;;11.55;61.74;101120.84;5026651;28;20056;-63
2022/02/15 11:42:46;;;;;;;16.20;3.42;;;;;;;11.63;62.08;101119.31;5013935;28;20056;-64
2022/02/15 11:45:15;;;;;;;13.80;3.47;;;;;;;11.37;62.90;101109.97;5026075;28;20045;-63